Time;durP1;ratioP1;P1;durP2;ratioP2;P2;SDS_P1;SDS_P2;PMS_P1;PMS_P2;Temp;Humidity;BMP_temperature;BMP_pressure;BME280_temperature;BME280_humidity;BME280_pressure;Samples;Min_cycle;Max_cycle;Signal;HPM_P1;HPM_P2
2023/09/06 00:00:45;;;;;;;4.83;4.43;;;;;;;;;;5070564;28;20629;-65
2023/09/06 00:03:14;;;;;;;4.53;4.13;;;;;;;;;;5069313;28;20584;-65
2023/09/06 00:05:42;;;;;;;5.20;3.90;;;;;;;;;;5075746;28;21008;-66
2023/09/06 00:08:12;;;;;;;4.27;3.67;;;;;;;;;;5084786;28;20670;-65
2023/09/06 00:10:40;;;;;;;3.93;3.63;;;;;;;;;;5074113;28;20614;-65
2023/09/06 00:13:09;;;;;;;3.80;3.57;;;;;;;;;;5070853;28;20625;-65
2023/09/06 00:15:37;;;;;;;4.50;4.07;;;;;;;;;;5070851;28;20622;-66
2023/09/06 00:18:07;;;;;;;4.37;3.93;;;;;;;;;;5072034;28;20626;-65
2023/09/06 00:20:36;;;;;;;4.17;3.80;;;;;;;;;;5070661;28;20622;-65
2023/09/06 00:23:05;;;;;;;3.87;3.67;;;;;;;;;;5071275;28;20647;-65
2023/09/06 00:25:34;;;;;;;9.37;4.23;;;;;;;;;;5071701;28;20644;-65
2023/09/06 00:28:04;;;;;;;3.97;3.67;;;;;;;;;;5091380;28;21122;-64
2023/09/06 00:30:34;;;;;;;6.53;4.90;;;;;;;;;;5091194;28;20604;-65
2023/09/06 00:33:05;;;;;;;3.60;3.40;;;;;;;;;;5091193;28;20618;-65
2023/09/06 00:35:35;;;;;;;6.33;4.00;;;;;;;;;;5091079;28;20982;-65
2023/09/06 00:38:05;;;;;;;4.30;3.90;;;;;;;;;;5091156;28;20653;-65
2023/09/06 00:40:36;;;;;;;5.27;4.20;;;;;;;;;;5091233;28;20914;-65
2023/09/06 00:43:05;;;;;;;5.67;4.40;;;;;;;;;;5090813;28;20580;-65
2023/09/06 00:45:38;;;;;;;4.80;3.83;;;;;;;;;;5090918;28;21204;-65
2023/09/06 00:48:07;;;;;;;4.00;3.70;;;;;;;;;;5090874;28;20584;-65
2023/09/06 00:50:37;;;;;;;4.50;4.20;;;;;;;;;;5090198;28;20609;-66
2023/09/06 00:53:07;;;;;;;5.27;4.87;;;;;;;;;;5089362;28;20609;-65
2023/09/06 00:55:37;;;;;;;4.77;4.07;;;;;;;;;;5091619;28;20601;-65
2023/09/06 00:58:05;;;;;;;3.90;3.60;;;;;;;;;;5090837;28;20683;-66
2023/09/06 01:00:35;;;;;;;5.50;3.70;;;;;;;;;;5090053;28;20617;-68
2023/09/06 01:03:05;;;;;;;4.97;4.27;;;;;;;;;;5088254;28;21209;-68
2023/09/06 01:05:40;;;;;;;4.20;3.83;;;;;;;;;;5089553;28;20662;-68
2023/09/06 01:08:12;;;;;;;5.50;4.10;;;;;;;;;;5091283;28;20585;-68
2023/09/06 01:10:40;;;;;;;4.00;3.70;;;;;;;;;;5080649;28;20643;-70
2023/09/06 01:13:09;;;;;;;4.70;4.30;;;;;;;;;;5070915;28;21202;-69
2023/09/06 01:15:38;;;;;;;4.40;4.10;;;;;;;;;;5084043;28;20629;-68
2023/09/06 01:18:08;;;;;;;7.63;4.50;;;;;;;;;;5091207;28;20652;-68
2023/09/06 01:20:41;;;;;;;5.20;4.70;;;;;;;;;;5094048;28;20615;-68
2023/09/06 01:23:17;;;;;;;5.07;4.37;;;;;;;;;;5094868;28;20613;-68
2023/09/06 01:25:47;;;;;;;4.77;4.27;;;;;;;;;;5094747;28;20974;-68
2023/09/06 01:28:15;;;;;;;4.27;3.87;;;;;;;;;;5094615;28;20617;-68
2023/09/06 01:30:43;;;;;;;5.23;4.00;;;;;;;;;;5093459;28;20954;-68
2023/09/06 01:33:13;;;;;;;4.17;3.87;;;;;;;;;;5093139;28;20685;-68
2023/09/06 01:35:41;;;;;;;4.40;4.10;;;;;;;;;;5094799;28;20598;-67
2023/09/06 01:38:11;;;;;;;4.63;4.20;;;;;;;;;;5094413;28;20657;-68
2023/09/06 01:40:40;;;;;;;4.00;3.70;;;;;;;;;;5093180;28;20617;-68
2023/09/06 01:43:09;;;;;;;4.63;4.23;;;;;;;;;;5094163;28;20625;-68
2023/09/06 01:45:38;;;;;;;5.27;4.00;;;;;;;;;;5094753;28;20621;-68
2023/09/06 01:48:07;;;;;;;4.83;3.80;;;;;;;;;;5094214;28;21014;-68
2023/09/06 01:50:36;;;;;;;10.93;4.23;;;;;;;;;;5093101;28;20624;-68
2023/09/06 01:53:04;;;;;;;4.80;4.40;;;;;;;;;;5094029;28;20621;-67
2023/09/06 01:55:32;;;;;;;5.47;4.70;;;;;;;;;;5094148;28;20945;-68
2023/09/06 01:58:03;;;;;;;4.30;4.00;;;;;;;;;;5092427;28;20690;-67
2023/09/06 02:00:36;;;;;;;4.40;4.00;;;;;;;;;;5094065;28;20966;-67
2023/09/06 02:03:06;;;;;;;4.40;4.10;;;;;;;;;;5090858;28;20616;-68
2023/09/06 02:05:36;;;;;;;7.50;5.00;;;;;;;;;;5092855;28;20635;-68
2023/09/06 02:08:05;;;;;;;4.80;4.40;;;;;;;;;;5093572;28;20625;-68
2023/09/06 02:10:33;;;;;;;5.23;4.00;;;;;;;;;;5093941;28;20629;-68
2023/09/06 02:13:01;;;;;;;5.10;3.97;;;;;;;;;;5093806;28;20621;-68
2023/09/06 02:15:30;;;;;;;4.83;4.43;;;;;;;;;;5093593;28;20596;-68
2023/09/06 02:17:59;;;;;;;4.37;4.00;;;;;;;;;;5093584;28;20679;-68
2023/09/06 02:20:28;;;;;;;4.50;4.10;;;;;;;;;;5092952;28;20671;-68
2023/09/06 02:22:55;;;;;;;4.23;3.93;;;;;;;;;;5093440;28;20625;-68
2023/09/06 02:25:25;;;;;;;6.37;4.37;;;;;;;;;;5094141;28;20616;-69
2023/09/06 02:27:54;;;;;;;4.70;4.20;;;;;;;;;;5093739;28;20604;-68
2023/09/06 02:30:23;;;;;;;4.20;3.80;;;;;;;;;;5093473;28;20615;-68
2023/09/06 02:32:51;;;;;;;8.63;4.57;;;;;;;;;;5093248;28;21029;-68
2023/09/06 02:35:21;;;;;;;4.43;4.13;;;;;;;;;;5093906;28;20662;-68
2023/09/06 02:37:49;;;;;;;4.47;3.57;;;;;;;;;;5093674;28;20713;-68
2023/09/06 02:40:20;;;;;;;4.30;4.00;;;;;;;;;;5082944;28;20626;-67
2023/09/06 02:42:51;;;;;;;4.70;4.30;;;;;;;;;;5072995;28;20925;-67
2023/09/06 02:45:22;;;;;;;7.70;4.60;;;;;;;;;;5072928;28;20582;-69
2023/09/06 02:47:52;;;;;;;4.97;4.30;;;;;;;;;;5073504;28;20589;-69
2023/09/06 02:50:23;;;;;;;5.03;4.53;;;;;;;;;;5071978;28;20617;-69
2023/09/06 02:52:52;;;;;;;5.00;4.50;;;;;;;;;;5072261;28;20595;-69
2023/09/06 02:55:21;;;;;;;4.63;4.23;;;;;;;;;;5072137;28;20659;-68
2023/09/06 02:57:50;;;;;;;4.27;3.87;;;;;;;;;;5073011;28;20662;-69
2023/09/06 03:00:25;;;;;;;5.80;5.00;;;;;;;;;;5072838;28;20683;-68
2023/09/06 03:02:55;;;;;;;5.03;4.63;;;;;;;;;;5075463;28;20574;-68
2023/09/06 03:05:27;;;;;;;5.60;4.67;;;;;;;;;;5090063;28;20648;-69
2023/09/06 03:07:55;;;;;;;6.23;4.20;;;;;;;;;;5092816;28;20591;-68
2023/09/06 03:10:25;;;;;;;4.30;3.90;;;;;;;;;;5074740;28;20934;-68
2023/09/06 03:12:55;;;;;;;5.30;4.77;;;;;;;;;;5092805;28;21032;-69
2023/09/06 03:15:28;;;;;;;5.57;4.27;;;;;;;;;;5087635;28;20674;-68
2023/09/06 03:18:01;;;;;;;5.20;4.70;;;;;;;;;;5091485;28;20644;-68
2023/09/06 03:20:34;;;;;;;8.90;4.77;;;;;;;;;;5093002;28;20654;-69
2023/09/06 03:23:16;;;;;;;8.40;4.80;;;;;;;;;;5092416;28;20584;-69
2023/09/06 03:25:47;;;;;;;5.57;4.67;;;;;;;;;;5091092;28;20583;-68
2023/09/06 03:28:15;;;;;;;14.63;6.63;;;;;;;;;;5091136;28;20674;-69
2023/09/06 03:30:44;;;;;;;4.80;4.37;;;;;;;;;;5091768;28;20621;-69
2023/09/06 03:33:12;;;;;;;5.37;4.83;;;;;;;;;;5092200;28;20625;-69
2023/09/06 03:35:45;;;;;;;4.43;4.03;;;;;;;;;;5091022;28;20601;-69
2023/09/06 03:38:17;;;;;;;8.20;5.10;;;;;;;;;;5090886;28;21190;-68
2023/09/06 03:40:45;;;;;;;5.27;4.77;;;;;;;;;;5092097;28;20580;-69
2023/09/06 03:43:16;;;;;;;5.37;4.57;;;;;;;;;;5092350;28;20620;-69
2023/09/06 03:45:45;;;;;;;4.40;4.10;;;;;;;;;;5092165;28;20589;-69
2023/09/06 03:48:14;;;;;;;5.23;4.73;;;;;;;;;;5090662;28;20981;-69
2023/09/06 03:50:45;;;;;;;5.13;4.57;;;;;;;;;;5090869;28;21022;-69
2023/09/06 03:53:15;;;;;;;4.40;4.00;;;;;;;;;;5091334;28;21131;-69
2023/09/06 03:55:43;;;;;;;5.37;4.83;;;;;;;;;;5091902;28;21193;-68
2023/09/06 03:58:12;;;;;;;4.40;4.10;;;;;;;;;;5090542;28;20659;-68
2023/09/06 04:00:44;;;;;;;5.17;4.77;;;;;;;;;;5090414;28;20610;-67
2023/09/06 04:03:22;;;;;;;5.50;5.10;;;;;;;;;;5091049;28;20636;-68
2023/09/06 04:05:53;;;;;;;5.13;4.70;;;;;;;;;;5081030;28;21214;-68
2023/09/06 04:08:28;;;;;;;6.07;4.67;;;;;;;;;;5090730;28;20577;-68
2023/09/06 04:10:57;;;;;;;4.67;4.27;;;;;;;;;;5090577;28;20589;-68
2023/09/06 04:13:25;;;;;;;5.43;4.90;;;;;;;;;;5090662;28;20621;-68
2023/09/06 04:15:53;;;;;;;5.80;5.03;;;;;;;;;;5090931;28;20609;-68
2023/09/06 04:18:22;;;;;;;9.67;5.53;;;;;;;;;;5090198;28;20649;-68
2023/09/06 04:20:50;;;;;;;5.23;4.73;;;;;;;;;;5091864;28;20607;-68
2023/09/06 04:23:24;;;;;;;4.80;4.40;;;;;;;;;;5091603;28;20585;-68
2023/09/06 04:25:57;;;;;;;5.30;4.67;;;;;;;;;;5070406;28;20578;-68
2023/09/06 04:28:28;;;;;;;6.73;4.47;;;;;;;;;;5069968;28;20575;-68
2023/09/06 04:31:00;;;;;;;4.90;4.50;;;;;;;;;;5069842;28;20610;-69
2023/09/06 04:33:33;;;;;;;7.40;4.70;;;;;;;;;;5069842;28;20667;-68
2023/09/06 04:36:21;;;;;;;5.90;4.77;;;;;;;;;;5070164;28;20561;-68
2023/09/06 04:38:56;;;;;;;5.40;5.00;;;;;;;;;;5070131;28;21207;-68
2023/09/06 04:41:25;;;;;;;7.67;5.50;;;;;;;;;;5070270;28;20943;-68
2023/09/06 04:43:58;;;;;;;6.93;4.57;;;;;;;;;;5070202;28;20598;-67
2023/09/06 04:46:26;;;;;;;7.13;4.90;;;;;;;;;;5071062;28;20584;-66
2023/09/06 04:48:55;;;;;;;6.60;4.90;;;;;;;;;;5070455;28;21324;-68
2023/09/06 04:51:23;;;;;;;5.20;4.70;;;;;;;;;;5070824;28;20613;-67
2023/09/06 04:53:55;;;;;;;5.40;4.97;;;;;;;;;;5056452;28;20598;-68
2023/09/06 04:56:29;;;;;;;5.33;4.83;;;;;;;;;;5089534;28;20587;-67
2023/09/06 04:58:59;;;;;;;5.07;4.67;;;;;;;;;;5089814;28;21226;-68
2023/09/06 05:01:28;;;;;;;8.70;5.00;;;;;;;;;;5089819;28;20595;-68
2023/09/06 05:03:56;;;;;;;6.30;5.27;;;;;;;;;;5087742;28;20652;-67
2023/09/06 05:06:25;;;;;;;6.57;4.80;;;;;;;;;;5090160;28;20617;-67
2023/09/06 05:08:54;;;;;;;6.97;5.20;;;;;;;;;;5073571;28;21181;-69
2023/09/06 05:11:26;;;;;;;5.87;5.30;;;;;;;;;;5089080;28;20609;-68
2023/09/06 05:13:55;;;;;;;6.33;5.73;;;;;;;;;;5082150;28;20609;-68
2023/09/06 05:16:26;;;;;;;5.57;5.07;;;;;;;;;;5093256;28;20605;-69
2023/09/06 05:18:55;;;;;;;7.90;4.93;;;;;;;;;;5088036;28;20625;-68
2023/09/06 05:21:27;;;;;;;5.20;4.80;;;;;;;;;;5088081;28;20601;-69
2023/09/06 05:23:55;;;;;;;7.07;4.57;;;;;;;;;;5088340;28;20656;-68
2023/09/06 05:26:23;;;;;;;6.10;5.53;;;;;;;;;;5103532;28;20624;-68
2023/09/06 05:28:53;;;;;;;5.20;4.70;;;;;;;;;;5086575;28;20629;-69
2023/09/06 05:31:22;;;;;;;14.63;5.97;;;;;;;;;;5097994;28;20627;-69
2023/09/06 05:33:52;;;;;;;9.83;5.20;;;;;;;;;;5102963;28;20732;-69
2023/09/06 05:36:23;;;;;;;5.27;4.77;;;;;;;;;;5086116;28;20577;-69
2023/09/06 05:38:52;;;;;;;9.53;5.10;;;;;;;;;;5090367;28;20657;-68
2023/09/06 05:41:23;;;;;;;6.83;5.10;;;;;;;;;;5091464;28;20591;-67
2023/09/06 05:43:51;;;;;;;11.97;4.97;;;;;;;;;;5088453;28;20621;-68
2023/09/06 05:46:21;;;;;;;5.57;4.87;;;;;;;;;;5090507;28;20625;-67
2023/09/06 05:48:51;;;;;;;15.63;5.80;;;;;;;;;;5089323;28;20581;-68
2023/09/06 05:51:20;;;;;;;5.17;4.73;;;;;;;;;;5089498;28;20966;-69
2023/09/06 05:53:51;;;;;;;7.23;4.90;;;;;;;;;;5089352;28;20586;-69
2023/09/06 05:56:19;;;;;;;7.10;5.57;;;;;;;;;;5090329;28;20629;-69
2023/09/06 05:58:47;;;;;;;5.50;5.00;;;;;;;;;;5089533;28;20632;-69
2023/09/06 06:01:17;;;;;;;9.00;5.97;;;;;;;;;;5089175;28;20629;-68
2023/09/06 06:03:47;;;;;;;5.43;4.70;;;;;;;;;;5086754;28;20661;-68
2023/09/06 06:06:17;;;;;;;4.83;4.40;;;;;;;;;;5090654;28;21717;-67
2023/09/06 06:08:45;;;;;;;5.00;4.60;;;;;;;;;;5075513;28;20592;-68
2023/09/06 06:11:14;;;;;;;6.53;4.77;;;;;;;;;;5093734;28;20621;-67
2023/09/06 06:13:42;;;;;;;4.90;4.40;;;;;;;;;;5090672;28;20633;-68
2023/09/06 06:16:11;;;;;;;6.40;5.90;;;;;;;;;;5091971;28;20625;-67
2023/09/06 06:18:39;;;;;;;5.20;4.70;;;;;;;;;;5092262;28;20636;-67
2023/09/06 06:21:10;;;;;;;5.20;4.80;;;;;;;;;;5093565;28;20617;-67
2023/09/06 06:23:43;;;;;;;7.07;4.47;;;;;;;;;;5089656;28;21130;-67
2023/09/06 06:26:11;;;;;;;7.20;4.60;;;;;;;;;;5092753;28;20613;-67
2023/09/06 06:28:40;;;;;;;6.77;4.40;;;;;;;;;;5089860;28;20624;-68
2023/09/06 06:31:08;;;;;;;10.53;4.97;;;;;;;;;;5091402;28;20639;-67
2023/09/06 06:33:38;;;;;;;7.67;5.30;;;;;;;;;;5090752;28;20670;-68
2023/09/06 06:36:06;;;;;;;5.47;4.70;;;;;;;;;;5093495;28;20583;-68
2023/09/06 06:38:36;;;;;;;6.70;5.10;;;;;;;;;;5092201;28;20629;-68
2023/09/06 06:41:04;;;;;;;6.93;5.67;;;;;;;;;;5092511;28;20652;-68
2023/09/06 06:43:33;;;;;;;4.80;4.40;;;;;;;;;;5092753;28;20628;-68
2023/09/06 06:46:04;;;;;;;5.93;5.37;;;;;;;;;;5092643;28;20629;-68
2023/09/06 06:48:32;;;;;;;4.47;4.07;;;;;;;;;;5093033;28;20590;-68
2023/09/06 06:51:01;;;;;;;4.97;4.50;;;;;;;;;;5088748;28;21254;-68
2023/09/06 06:53:32;;;;;;;7.03;4.93;;;;;;;;;;5090962;28;20617;-68
2023/09/06 06:56:01;;;;;;;5.43;4.93;;;;;;;;;;5092208;28;20948;-68
2023/09/06 06:58:30;;;;;;;8.20;5.13;;;;;;;;;;5091479;28;20617;-68
2023/09/06 07:00:58;;;;;;;6.63;4.63;;;;;;;;;;5088332;28;20661;-68
2023/09/06 07:03:26;;;;;;;4.67;4.30;;;;;;;;;;5089875;28;20666;-67
2023/09/06 07:05:55;;;;;;;6.60;5.30;;;;;;;;;;5087634;28;20659;-69
2023/09/06 07:08:26;;;;;;;5.67;5.17;;;;;;;;;;5090870;28;20629;-68
2023/09/06 07:10:54;;;;;;;7.77;4.77;;;;;;;;;;5092694;28;20605;-68
2023/09/06 07:13:24;;;;;;;8.37;5.50;;;;;;;;;;5092322;28;20959;-68
2023/09/06 07:15:52;;;;;;;6.53;5.00;;;;;;;;;;5092154;28;21508;-68
2023/09/06 07:18:20;;;;;;;5.43;5.03;;;;;;;;;;5091465;28;20979;-67
2023/09/06 07:20:48;;;;;;;8.57;4.27;;;;;;;;;;5091203;28;20652;-68
2023/09/06 07:23:17;;;;;;;5.93;5.40;;;;;;;;;;5091743;28;21191;-68
2023/09/06 07:25:46;;;;;;;5.67;4.93;;;;;;;;;;5092022;28;21805;-68
2023/09/06 07:28:15;;;;;;;8.60;5.63;;;;;;;;;;5091818;28;20613;-68
2023/09/06 07:30:44;;;;;;;5.60;4.75;;;;;;;;;;5089238;28;20756;-64
2023/09/06 07:33:12;;;;;;;6.30;5.40;;;;;;;;;;5090301;28;20919;-64
2023/09/06 07:35:42;;;;;;;5.40;5.00;;;;;;;;;;5091335;28;21022;-63
2023/09/06 07:38:10;;;;;;;5.43;4.93;;;;;;;;;;5091456;28;20686;-64
2023/09/06 07:40:38;;;;;;;5.73;5.23;;;;;;;;;;5091696;28;20657;-64
2023/09/06 07:43:06;;;;;;;4.90;4.40;;;;;;;;;;5091418;28;20629;-63
2023/09/06 07:45:36;;;;;;;5.90;5.40;;;;;;;;;;5090669;28;20627;-63
2023/09/06 07:48:06;;;;;;;5.47;4.97;;;;;;;;;;5090569;28;20617;-63
2023/09/06 07:50:34;;;;;;;6.00;5.40;;;;;;;;;;5089442;28;20636;-64
2023/09/06 07:53:02;;;;;;;4.40;4.20;;;;;;;;;;5089329;28;20622;-63
2023/09/06 07:55:31;;;;;;;5.80;5.40;;;;;;;;;;5091559;28;20621;-65
2023/09/06 07:57:59;;;;;;;6.13;5.73;;;;;;;;;;5090101;28;20618;-66
2023/09/06 08:00:28;;;;;;;6.70;6.20;;;;;;;;;;5090209;28;20657;-66
2023/09/06 08:02:56;;;;;;;6.70;6.07;;;;;;;;;;5083288;28;20626;-66
2023/09/06 08:05:26;;;;;;;6.53;5.90;;;;;;;;;;5089834;28;20626;-65
2023/09/06 08:07:55;;;;;;;5.87;5.30;;;;;;;;;;5086475;28;20627;-66
2023/09/06 08:10:23;;;;;;;5.97;5.57;;;;;;;;;;5090302;28;20634;-64
2023/09/06 08:12:52;;;;;;;7.53;5.80;;;;;;;;;;5089735;28;20621;-65
2023/09/06 08:15:20;;;;;;;8.40;6.00;;;;;;;;;;5091316;28;21171;-65
2023/09/06 08:17:48;;;;;;;8.23;5.83;;;;;;;;;;5091621;28;20690;-65
2023/09/06 08:20:17;;;;;;;5.90;5.40;;;;;;;;;;5090715;28;20661;-65
2023/09/06 08:22:47;;;;;;;5.80;5.40;;;;;;;;;;5087894;28;20629;-65
2023/09/06 08:25:17;;;;;;;7.00;6.50;;;;;;;;;;5087561;28;20641;-65
2023/09/06 08:27:45;;;;;;;6.47;5.97;;;;;;;;;;5090913;28;20625;-64
2023/09/06 08:30:14;;;;;;;6.57;5.97;;;;;;;;;;5090809;28;20614;-66
2023/09/06 08:32:44;;;;;;;5.33;5.03;;;;;;;;;;5091127;28;21174;-64
2023/09/06 08:35:12;;;;;;;7.20;6.70;;;;;;;;;;5077046;28;21686;-65
2023/09/06 08:37:45;;;;;;;9.63;6.50;;;;;;;;;;5090051;28;21163;-64
2023/09/06 08:40:15;;;;;;;7.60;6.90;;;;;;;;;;5088431;28;20672;-64
2023/09/06 08:42:45;;;;;;;7.33;6.83;;;;;;;;;;5088677;28;20594;-64
2023/09/06 08:45:14;;;;;;;7.23;6.70;;;;;;;;;;5091753;28;20621;-66
2023/09/06 08:47:43;;;;;;;6.57;6.17;;;;;;;;;;5090503;28;20616;-64
2023/09/06 08:50:11;;;;;;;7.60;6.90;;;;;;;;;;5091643;28;20617;-63
2023/09/06 08:52:41;;;;;;;6.80;6.20;;;;;;;;;;5091597;28;20616;-63
2023/09/06 08:55:10;;;;;;;7.87;6.50;;;;;;;;;;5090716;28;20629;-65
2023/09/06 08:57:40;;;;;;;7.00;6.40;;;;;;;;;;5087931;28;20621;-64
2023/09/06 09:00:09;;;;;;;7.00;6.50;;;;;;;;;;5090931;28;21077;-65
2023/09/06 09:02:40;;;;;;;7.50;5.93;;;;;;;;;;5088290;28;20961;-64
2023/09/06 09:05:09;;;;;;;6.77;6.27;;;;;;;;;;5088991;28;21223;-65
2023/09/06 09:07:38;;;;;;;7.73;6.93;;;;;;;;;;5089134;28;20629;-66
2023/09/06 09:10:07;;;;;;;8.17;6.73;;;;;;;;;;5084746;28;20990;-65
2023/09/06 09:12:36;;;;;;;9.50;6.30;;;;;;;;;;5089859;28;20632;-65
2023/09/06 09:15:08;;;;;;;6.53;6.07;;;;;;;;;;5086956;28;20625;-65
2023/09/06 09:17:39;;;;;;;8.73;6.43;;;;;;;;;;5089589;28;21207;-66
2023/09/06 09:20:09;;;;;;;7.07;6.37;;;;;;;;;;5087266;28;20623;-66
2023/09/06 09:22:38;;;;;;;7.30;6.30;;;;;;;;;;5090197;28;20964;-65
2023/09/06 09:25:14;;;;;;;6.40;6.00;;;;;;;;;;5089757;28;20624;-65
2023/09/06 09:27:45;;;;;;;6.87;6.37;;;;;;;;;;5082732;28;20650;-65
2023/09/06 09:30:15;;;;;;;9.00;8.17;;;;;;;;;;5089843;28;20609;-65
2023/09/06 09:32:43;;;;;;;7.60;7.00;;;;;;;;;;5090029;28;20601;-65
2023/09/06 09:35:12;;;;;;;6.77;6.27;;;;;;;;;;5089435;28;20656;-65
2023/09/06 09:37:40;;;;;;;7.63;6.93;;;;;;;;;;5090106;28;20641;-65
2023/09/06 09:40:19;;;;;;;7.50;6.80;;;;;;;;;;5089990;28;21048;-65
2023/09/06 09:42:53;;;;;;;7.23;6.73;;;;;;;;;;5093916;28;20960;-65
2023/09/06 09:45:24;;;;;;;8.07;7.07;;;;;;;;;;5088587;28;20967;-65
2023/09/06 09:47:53;;;;;;;7.90;7.27;;;;;;;;;;5093239;28;20581;-65
2023/09/06 09:50:22;;;;;;;7.40;6.80;;;;;;;;;;5093146;28;20629;-65
2023/09/06 09:52:51;;;;;;;7.87;7.20;;;;;;;;;;5093999;28;21073;-65
2023/09/06 09:55:21;;;;;;;8.60;7.77;;;;;;;;;;5091930;28;20629;-65
2023/09/06 09:57:50;;;;;;;7.63;7.13;;;;;;;;;;5094403;28;20617;-65
2023/09/06 10:00:27;;;;;;;7.90;7.30;;;;;;;;;;5091913;28;20631;-65
2023/09/06 10:02:58;;;;;;;8.20;7.70;;;;;;;;;;5086957;28;20613;-65
2023/09/06 10:05:28;;;;;;;7.50;7.00;;;;;;;;;;5084845;28;20621;-65
2023/09/06 10:07:57;;;;;;;7.80;7.20;;;;;;;;;;5092457;28;20623;-66
2023/09/06 10:10:25;;;;;;;8.20;7.60;;;;;;;;;;5092903;28;20628;-66
2023/09/06 10:12:54;;;;;;;7.63;6.93;;;;;;;;;;5093999;28;20640;-66
2023/09/06 10:15:24;;;;;;;7.13;6.73;;;;;;;;;;5092170;28;20761;-66
2023/09/06 10:17:53;;;;;;;8.27;7.40;;;;;;;;;;5092480;28;20618;-66
2023/09/06 10:20:23;;;;;;;8.17;7.67;;;;;;;;;;5087874;28;20636;-65
2023/09/06 10:22:57;;;;;;;7.53;6.93;;;;;;;;;;5093331;28;20615;-65
2023/09/06 10:25:25;;;;;;;7.70;7.07;;;;;;;;;;5092631;28;20619;-66
2023/09/06 10:27:54;;;;;;;8.57;7.93;;;;;;;;;;5091269;28;20633;-64
2023/09/06 10:30:28;;;;;;;10.33;8.07;;;;;;;;;;5091422;28;20619;-65
2023/09/06 10:33:01;;;;;;;7.83;7.10;;;;;;;;;;5093046;28;20630;-65
2023/09/06 10:35:32;;;;;;;7.90;7.30;;;;;;;;;;5091446;28;20601;-65
2023/09/06 10:38:05;;;;;;;8.00;7.43;;;;;;;;;;5093274;28;20600;-64
2023/09/06 10:40:51;;;;;;;7.17;6.77;;;;;;;;;;5092715;28;20633;-65
2023/09/06 10:43:22;;;;;;;7.03;6.63;;;;;;;;;;5092063;28;20612;-65
2023/09/06 10:45:56;;;;;;;7.73;7.07;;;;;;;;;;5091870;28;20605;-64
2023/09/06 10:48:24;;;;;;;7.40;7.00;;;;;;;;;;5093655;28;20610;-65
2023/09/06 10:51:07;;;;;;;8.33;7.83;;;;;;;;;;5092613;28;20629;-65
2023/09/06 10:53:37;;;;;;;8.63;7.93;;;;;;;;;;5087157;28;20629;-65
2023/09/06 10:56:06;;;;;;;8.00;7.40;;;;;;;;;;5092814;28;20677;-65
2023/09/06 10:58:35;;;;;;;8.03;7.43;;;;;;;;;;5090855;28;20633;-65
2023/09/06 11:01:16;;;;;;;7.67;7.27;;;;;;;;;;5092151;28;20896;-65
2023/09/06 11:03:48;;;;;;;8.60;7.57;;;;;;;;;;5085725;28;21057;-65
2023/09/06 11:06:18;;;;;;;8.37;7.60;;;;;;;;;;5088031;28;20615;-65
2023/09/06 11:08:49;;;;;;;8.47;7.60;;;;;;;;;;5090853;28;20621;-65
2023/09/06 11:11:17;;;;;;;9.03;8.13;;;;;;;;;;5091455;28;20992;-65
2023/09/06 11:13:45;;;;;;;9.13;8.63;;;;;;;;;;5091616;28;20621;-66
2023/09/06 11:16:15;;;;;;;8.43;7.93;;;;;;;;;;5091826;28;20646;-65
2023/09/06 11:18:44;;;;;;;9.37;8.87;;;;;;;;;;5092740;28;20610;-65
2023/09/06 11:21:18;;;;;;;9.27;8.27;;;;;;;;;;5086561;28;21249;-65
2023/09/06 11:23:49;;;;;;;10.17;9.47;;;;;;;;;;5091965;28;20685;-65
2023/09/06 11:26:17;;;;;;;10.23;9.47;;;;;;;;;;5091126;28;20612;-65
2023/09/06 11:28:47;;;;;;;10.13;9.10;;;;;;;;;;5091694;28;20629;-65
2023/09/06 11:31:22;;;;;;;10.30;9.70;;;;;;;;;;5092142;28;20630;-66
2023/09/06 11:33:55;;;;;;;10.10;9.50;;;;;;;;;;5091267;28;20660;-66
2023/09/06 11:36:26;;;;;;;9.87;9.17;;;;;;;;;;5074057;28;20615;-66
2023/09/06 11:38:57;;;;;;;9.90;9.40;;;;;;;;;;5091574;28;20623;-65
2023/09/06 11:41:25;;;;;;;9.90;9.40;;;;;;;;;;5091637;28;20633;-65
2023/09/06 11:43:58;;;;;;;9.90;9.40;;;;;;;;;;5090694;28;20629;-66
2023/09/06 11:46:26;;;;;;;9.93;9.20;;;;;;;;;;5099252;28;20664;-66
2023/09/06 11:48:54;;;;;;;10.37;9.47;;;;;;;;;;5100875;28;20629;-65
2023/09/06 11:51:24;;;;;;;10.63;10.00;;;;;;;;;;5098358;28;20634;-65
2023/09/06 11:54:00;;;;;;;10.00;9.30;;;;;;;;;;5094613;28;20624;-65
2023/09/06 11:56:33;;;;;;;9.40;8.90;;;;;;;;;;5084628;28;20584;-65
2023/09/06 11:59:06;;;;;;;10.13;9.33;;;;;;;;;;5095379;28;21151;-66
2023/09/06 12:01:39;;;;;;;9.87;9.17;;;;;;;;;;5095115;28;20700;-65
2023/09/06 12:04:10;;;;;;;10.10;9.30;;;;;;;;;;5094422;28;20652;-65
2023/09/06 12:06:39;;;;;;;10.20;9.50;;;;;;;;;;5097936;28;20613;-65
2023/09/06 12:09:12;;;;;;;10.40;9.50;;;;;;;;;;5097286;28;20628;-65
2023/09/06 12:11:42;;;;;;;10.30;9.70;;;;;;;;;;5097581;28;20609;-65
2023/09/06 12:14:11;;;;;;;10.90;10.27;;;;;;;;;;5098599;28;20624;-65
2023/09/06 12:16:39;;;;;;;10.30;9.70;;;;;;;;;;5092663;28;21200;-65
2023/09/06 12:19:11;;;;;;;9.90;9.40;;;;;;;;;;5095105;28;21158;-65
2023/09/06 12:21:40;;;;;;;10.27;9.27;;;;;;;;;;5095640;28;20702;-65
2023/09/06 12:24:09;;;;;;;9.90;9.30;;;;;;;;;;5090218;28;20686;-65
2023/09/06 12:26:37;;;;;;;10.07;9.47;;;;;;;;;;5090497;28;20605;-66
2023/09/06 12:29:07;;;;;;;9.70;9.10;;;;;;;;;;5089071;28;20633;-66
2023/09/06 12:31:35;;;;;;;9.90;9.20;;;;;;;;;;5089250;28;21162;-66
2023/09/06 12:34:04;;;;;;;11.20;10.30;;;;;;;;;;5089994;28;20667;-66
2023/09/06 12:36:32;;;;;;;10.87;10.27;;;;;;;;;;5088259;28;20631;-66
2023/09/06 12:39:00;;;;;;;10.10;9.30;;;;;;;;;;5088741;28;21247;-66
2023/09/06 12:41:29;;;;;;;10.23;9.47;;;;;;;;;;5090950;28;20614;-66
2023/09/06 12:43:57;;;;;;;9.87;9.20;;;;;;;;;;5089085;28;20635;-66
2023/09/06 12:46:27;;;;;;;10.70;9.77;;;;;;;;;;5090143;28;20633;-65
2023/09/06 12:48:55;;;;;;;10.03;9.30;;;;;;;;;;5085898;28;20636;-65
2023/09/06 12:51:23;;;;;;;10.10;9.40;;;;;;;;;;5090754;28;20621;-67
2023/09/06 12:53:52;;;;;;;10.40;9.73;;;;;;;;;;5086834;28;20625;-65
2023/09/06 12:56:20;;;;;;;9.00;8.57;;;;;;;;;;5089385;28;20629;-67
2023/09/06 12:58:48;;;;;;;10.10;9.30;;;;;;;;;;5088746;28;20998;-66
2023/09/06 13:01:16;;;;;;;10.03;9.53;;;;;;;;;;5087485;28;20693;-67
2023/09/06 13:03:46;;;;;;;10.17;9.57;;;;;;;;;;5081140;28;20677;-66
2023/09/06 13:06:14;;;;;;;9.97;9.47;;;;;;;;;;5084461;28;20629;-66
2023/09/06 13:08:48;;;;;;;10.40;9.60;;;;;;;;;;5088280;28;20633;-66
2023/09/06 13:11:16;;;;;;;10.13;9.60;;;;;;;;;;5090068;28;20673;-66
2023/09/06 13:13:45;;;;;;;10.27;9.70;;;;;;;;;;5088738;28;20640;-65
2023/09/06 13:16:13;;;;;;;9.80;9.20;;;;;;;;;;5093811;28;20621;-66
2023/09/06 13:18:41;;;;;;;10.53;9.43;;;;;;;;;;5094704;28;20639;-65
2023/09/06 13:21:12;;;;;;;10.03;9.23;;;;;;;;;;5094860;28;20625;-65
2023/09/06 13:23:40;;;;;;;9.47;8.90;;;;;;;;;;5093887;28;20644;-66
2023/09/06 13:26:08;;;;;;;10.30;9.40;;;;;;;;;;5075569;28;20618;-66
2023/09/06 13:28:36;;;;;;;10.30;9.70;;;;;;;;;;5094510;28;20628;-66
2023/09/06 13:31:06;;;;;;;9.70;9.20;;;;;;;;;;5094538;28;20613;-66
2023/09/06 13:33:35;;;;;;;9.70;9.10;;;;;;;;;;5094169;28;21470;-66
2023/09/06 13:36:04;;;;;;;10.10;9.60;;;;;;;;;;5094252;28;20631;-66
2023/09/06 13:38:33;;;;;;;9.83;9.23;;;;;;;;;;5094426;28;20632;-67
2023/09/06 13:41:02;;;;;;;9.60;8.90;;;;;;;;;;5094234;28;20625;-66
2023/09/06 13:43:30;;;;;;;9.40;9.00;;;;;;;;;;5109968;28;21230;-66
2023/09/06 13:45:59;;;;;;;9.60;9.10;;;;;;;;;;5094075;28;20633;-66
2023/09/06 13:48:27;;;;;;;10.23;9.33;;;;;;;;;;5094903;28;20625;-66
2023/09/06 13:50:56;;;;;;;10.23;9.63;;;;;;;;;;5094092;28;20621;-66
2023/09/06 13:53:24;;;;;;;10.07;9.17;;;;;;;;;;5094843;28;20619;-66
2023/09/06 13:55:54;;;;;;;11.03;10.10;;;;;;;;;;5094512;28;20625;-66
2023/09/06 13:58:22;;;;;;;9.30;8.80;;;;;;;;;;5095242;28;20639;-67
2023/09/06 14:00:55;;;;;;;10.10;9.30;;;;;;;;;;5092738;28;20621;-65
2023/09/06 14:03:24;;;;;;;9.20;8.80;;;;;;;;;;5093456;28;20680;-65
2023/09/06 14:05:52;;;;;;;9.63;9.13;;;;;;;;;;5088948;28;20641;-66
2023/09/06 14:08:20;;;;;;;9.63;9.07;;;;;;;;;;5085194;28;20987;-66
2023/09/06 14:10:52;;;;;;;9.50;9.00;;;;;;;;;;5094439;28;20618;-67
2023/09/06 14:13:22;;;;;;;10.30;9.30;;;;;;;;;;5094474;28;20604;-66
2023/09/06 14:15:50;;;;;;;9.93;9.10;;;;;;;;;;5094363;28;20625;-66
2023/09/06 14:18:18;;;;;;;9.73;9.30;;;;;;;;;;5094440;28;21032;-65
2023/09/06 14:20:47;;;;;;;9.13;8.63;;;;;;;;;;5093927;28;20677;-64
2023/09/06 14:23:15;;;;;;;10.00;9.20;;;;;;;;;;5090450;28;21843;-65
2023/09/06 14:25:43;;;;;;;9.90;9.40;;;;;;;;;;5072487;28;20628;-65
2023/09/06 14:28:11;;;;;;;10.10;9.30;;;;;;;;;;5072294;28;20614;-65
2023/09/06 14:30:41;;;;;;;8.83;8.30;;;;;;;;;;5073791;28;20641;-64
2023/09/06 14:33:10;;;;;;;9.57;8.97;;;;;;;;;;5071930;28;21124;-65
2023/09/06 14:35:38;;;;;;;9.23;8.73;;;;;;;;;;5073655;28;20588;-65
2023/09/06 14:38:07;;;;;;;10.20;9.20;;;;;;;;;;5072876;28;20994;-64
2023/09/06 14:40:39;;;;;;;9.10;8.30;;;;;;;;;;5074037;28;20618;-66
2023/09/06 14:43:07;;;;;;;10.23;9.23;;;;;;;;;;5073067;28;20691;-64
2023/09/06 14:45:35;;;;;;;9.13;8.60;;;;;;;;;;5073911;28;21247;-66
2023/09/06 14:48:06;;;;;;;9.50;8.70;;;;;;;;;;5071145;28;20712;-65
2023/09/06 14:50:34;;;;;;;10.47;9.60;;;;;;;;;;5077912;28;21189;-64
2023/09/06 14:53:03;;;;;;;9.73;9.10;;;;;;;;;;5092420;28;20623;-64
2023/09/06 14:55:34;;;;;;;10.10;9.40;;;;;;;;;;5088650;28;20623;-64